Time;durP1;ratioP1;P1;durP2;ratioP2;P2;SDS_P1;SDS_P2;PMS_P1;PMS_P2;Temp;Humidity;BMP_temperature;BMP_pressure;BME280_temperature;BME280_humidity;BME280_pressure;Samples;Min_cycle;Max_cycle;Signal;HPM_P1;HPM_P2
2023/05/31 05:27:06;;;;;;;;;;;;;;;20.16;56.76;100374.34;1813125;77;20104;-75
2023/05/31 05:29:33;;;;;;;;;;;;;;;19.99;57.37;100376.69;1818828;77;20236;-74
2023/05/31 05:32:00;;;;;;;;;;;;;;;19.86;57.65;100374.81;1820607;77;20174;-72
2023/05/31 05:34:27;;;;;;;;;;;;;;;19.82;59.13;100374.73;1828241;77;20445;-75
2023/05/31 05:36:54;;;;;;;;;;;;;;;19.98;59.97;100369.77;1830857;77;20416;-76
2023/05/31 05:39:21;;;;;;;;;;;;;;;20.15;58.25;100371.34;1826071;77;20418;-70
2023/05/31 05:41:48;;;;;;;;;;;;;;;20.19;58.13;100380.67;1809949;77;20133;-72
2023/05/31 05:44:15;;;;;;;;;;;;;;;20.29;58.53;100376.22;1818842;77;20400;-73
2023/05/31 05:46:42;;;;;;;;;;;;;;;20.64;58.11;100379.13;1819127;77;20080;-73
2023/05/31 05:49:09;;;;;;;;;;;;;;;20.94;56.67;100372.78;1805619;78;20118;-74
2023/05/31 05:51:36;;;;;;;;;;;;;;;21.24;55.53;100374.84;1802647;78;20093;-71
2023/05/31 05:54:05;;;;;;;;;;;;;;;21.54;52.83;100369.77;1803678;78;20107;-73
2023/05/31 05:56:32;;;;;;;;;;;;;;;21.70;50.03;100369.92;1807540;78;20103;-73
2023/05/31 05:59:00;;;;;;;;;;;;;;;21.67;49.12;100367.57;1806262;77;20110;-74
2023/05/31 06:01:31;;;;;;;;;;;;;;;21.60;48.70;100366.50;1809531;78;20083;-71
2023/05/31 06:03:58;;;;;;;;;;;;;;;21.61;48.57;100362.86;1813442;77;20483;-73
2023/05/31 06:06:26;;;;;;;;;;;;;;;21.64;47.87;100366.55;1832699;78;20104;-73
2023/05/31 06:08:53;;;;;;;;;;;;;;;21.71;48.49;100364.97;1811243;78;20156;-80
2023/05/31 06:11:20;;;;;;;;;;;;;;;22.00;47.69;100366.56;1810556;78;20177;-79
2023/05/31 06:13:48;;;;;;;;;;;;;;;22.21;46.81;100362.67;1807471;78;20098;-75
2023/05/31 06:16:18;;;;;;;;;;;;;;;22.43;46.91;100356.03;1772345;80;20260;-79
2023/05/31 06:18:45;;;;;;;;;;;;;;;22.73;45.56;100347.30;1777284;80;20094;-72
2023/05/31 06:21:11;;;;;;;;;;;;;;;22.96;44.55;100348.44;1795097;80;20117;-73
2023/05/31 06:23:40;;;;;;;;;;;;;;;23.21;43.28;100355.52;1799787;79;20149;-73
2023/05/31 06:26:11;;;;;;;;;;;;;;;23.31;42.56;100353.23;1809337;79;20125;-71
2023/05/31 06:28:39;;;;;;;;;;;;;;;23.51;42.33;100355.98;1786930;80;20144;-71
2023/05/31 06:31:09;;;;;;;;;;;;;;;23.82;41.35;100365.05;1793367;79;20153;-71
2023/05/31 06:33:40;;;;;;;;;;;;;;;24.09;40.79;100371.90;1812757;79;20107;-76
2023/05/31 06:36:07;;;;;;;;;;;;;;;24.32;38.92;100365.47;1807191;79;20160;-74
2023/05/31 06:38:35;;;;;;;;;;;;;;;24.42;37.50;100364.77;1810773;79;20157;-71
2023/05/31 06:41:02;;;;;;;;;;;;;;;24.43;36.63;100365.61;1809058;79;20195;-71
2023/05/31 06:43:30;;;;;;;;;;;;;;;24.30;36.65;100367.46;1811997;79;20155;-69
2023/05/31 06:46:17;;;;;;;;;;;;;;;24.24;37.33;100366.77;1725829;82;20479;-73
2023/05/31 06:48:54;;;;;;;;;;;;;;;24.41;36.43;100365.77;1688878;82;20087;-73
2023/05/31 06:51:41;;;;;;;;;;;;;;;24.63;34.84;100366.10;1768944;78;20106;-72
2023/05/31 06:54:12;;;;;;;;;;;;;;;24.70;34.44;100367.09;1750136;79;20147;-70
2023/05/31 06:56:39;;;;;;;;;;;;;;;24.75;34.52;100348.78;1810888;79;20150;-71
2023/05/31 06:59:07;;;;;;;;;;;;;;;24.78;34.45;100355.93;1799623;79;20357;-72
2023/05/31 07:01:35;;;;;;;;;;;;;;;24.86;33.97;100353.72;1810791;79;20201;-72
2023/05/31 07:04:01;;;;;;;;;;;;;;;24.81;33.32;100361.39;1822716;79;20143;-72
2023/05/31 07:06:28;;;;;;;;;;;;;;;24.89;33.55;100366.20;1804710;79;20137;-72
2023/05/31 07:08:56;;;;;;;;;;;;;;;25.00;33.54;100350.89;1793990;79;20138;-72
2023/05/31 07:11:40;;;;;;;;;;;;;;;25.05;33.30;100364.03;1800051;78;20158;-71
2023/05/31 07:14:07;;;;;;;;;;;;;;;25.01;33.71;100363.22;1803580;78;20414;-72
2023/05/31 07:16:34;;;;;;;;;;;;;;;24.98;34.04;100372.37;1808838;79;20090;-72
2023/05/31 07:19:04;;;;;;;;;;;;;;;24.93;34.27;100363.53;1806718;78;20094;-68
2023/05/31 07:21:32;;;;;;;;;;;;;;;25.01;33.80;100357.88;1810995;78;20088;-71
2023/05/31 07:23:59;;;;;;;;;;;;;;;24.90;31.78;100360.38;1829949;78;20080;-71
2023/05/31 07:26:27;;;;;;;;;;;;;;;24.66;31.35;100359.11;1832747;78;20866;-71
2023/05/31 07:28:54;;;;;;;;;;;;;;;24.55;31.21;100366.44;1831339;78;20289;-71
2023/05/31 07:31:22;;;;;;;;;;;;;;;24.65;30.96;100358.27;1832027;78;20129;-69
2023/05/31 07:33:48;;;;;;;;;;;;;;;24.76;30.66;100363.76;1830963;78;20100;-69
2023/05/31 07:36:15;;;;;;;;;;;;;;;24.74;30.12;100360.43;1802984;78;20121;-71
2023/05/31 07:38:44;;;;;;;;;;;;;;;24.52;29.75;100365.44;1806774;78;20090;-72
2023/05/31 07:41:10;;;;;;;;;;;;;;;24.26;29.31;100368.79;1805718;78;20174;-71
2023/05/31 07:43:41;;;;;;;;;;;;;;;24.18;29.55;100362.93;1803334;78;20105;-72
2023/05/31 07:46:07;;;;;;;;;;;;;;;24.25;29.64;100349.33;1805425;78;20223;-72
2023/05/31 07:48:34;;;;;;;;;;;;;;;24.28;29.83;100364.13;1808167;78;20104;-72
2023/05/31 07:51:01;;;;;;;;;;;;;;;24.17;29.75;100362.59;1818327;78;20100;-75
2023/05/31 07:53:55;;;;;;;;;;;;;;;24.14;29.59;100356.77;1827396;78;20104;-72
2023/05/31 07:56:03;;;;;;;;;;;;;;;24.16;29.65;100363.59;1799048;78;20120;-70
2023/05/31 07:58:30;;;;;;;;;;;;;;;24.20;29.80;100356.95;1826279;78;20144;-69
2023/05/31 08:00:57;;;;;;;;;;;;;;;24.28;29.66;100373.45;1815259;78;20158;-74
2023/05/31 08:03:26;;;;;;;;;;;;;;;24.24;29.98;100368.09;1817947;78;20129;-73
2023/05/31 08:05:53;;;;;;;;;;;;;;;24.40;29.94;100370.77;1782748;80;20126;-80
2023/05/31 08:08:20;;;;;;;;;;;;;;;24.44;29.81;100365.44;1816404;78;20149;-72
2023/05/31 08:10:47;;;;;;;;;;;;;;;24.50;29.87;100370.09;1808858;78;20178;-72
2023/05/31 08:13:14;;;;;;;;;;;;;;;24.56;29.54;100366.77;1799727;80;20153;-72
2023/05/31 08:15:40;;;;;;;;;;;;;;;24.51;28.93;100370.43;1800093;80;20152;-72
2023/05/31 08:18:07;;;;;;;;;;;;;;;24.38;28.93;100368.80;1816275;78;20092;-74
2023/05/31 08:20:35;;;;;;;;;;;;;;;24.19;29.29;100374.41;1821741;78;20096;-73
2023/05/31 08:23:02;;;;;;;;;;;;;;;23.99;29.56;100376.56;1820434;78;20123;-70
2023/05/31 08:25:28;;;;;;;;;;;;;;;23.74;29.85;100368.19;1812704;78;20623;-72
2023/05/31 08:27:55;;;;;;;;;;;;;;;23.52;30.47;100369.61;1815657;78;20502;-73
2023/05/31 08:30:22;;;;;;;;;;;;;;;23.55;31.14;100373.31;1814908;78;20154;-70
2023/05/31 08:32:56;;;;;;;;;;;;;;;23.58;30.78;100368.50;1811844;78;20092;-71
2023/05/31 08:35:29;;;;;;;;;;;;;;;23.61;31.02;100370.81;1805342;78;20180;-69
2023/05/31 08:37:59;;;;;;;;;;;;;;;23.77;30.94;100373.19;1810984;78;20149;-74
2023/05/31 08:40:26;;;;;;;;;;;;;;;23.87;30.37;100381.36;1813715;78;20102;-79
2023/05/31 08:42:59;;;;;;;;;;;;;;;23.79;30.22;100373.36;1818139;78;20161;-71
2023/05/31 08:45:28;;;;;;;;;;;;;;;23.73;30.54;100368.69;1816988;78;20136;-69
2023/05/31 08:48:04;;;;;;;;;;;;;;;23.69;30.33;100369.17;1810331;78;20148;-73
2023/05/31 08:50:31;;;;;;;;;;;;;;;23.69;30.36;100372.66;1812148;77;20479;-71
2023/05/31 08:52:58;;;;;;;;;;;;;;;23.60;30.43;100368.31;1808504;77;20204;-76
2023/05/31 08:55:25;;;;;;;;;;;;;;;23.55;30.97;100367.50;1812236;78;20160;-76
2023/05/31 08:57:54;;;;;;;;;;;;;;;23.54;31.37;100359.19;1788178;78;20157;-73
2023/05/31 09:00:21;;;;;;;;;;;;;;;23.53;30.82;100354.03;1796282;78;20156;-73
2023/05/31 09:05:31;;;;;;;;;;;;;;;23.46;30.76;100374.23;1812529;78;20490;-73
2023/05/31 09:08:01;;;;;;;;;;;;;;;23.37;30.83;100366.72;1816131;78;20171;-72
2023/05/31 09:10:29;;;;;;;;;;;;;;;23.34;31.07;100371.52;1799945;78;20389;-72
2023/05/31 09:13:01;;;;;;;;;;;;;;;23.28;31.21;100365.85;1793519;78;20098;-70
2023/05/31 09:15:28;;;;;;;;;;;;;;;23.28;31.12;100370.33;1820500;78;20135;-70
2023/05/31 09:17:56;;;;;;;;;;;;;;;23.23;30.92;100365.49;1830635;78;20135;-71
2023/05/31 09:20:32;;;;;;;;;;;;;;;23.10;30.55;100366.45;1819842;77;20365;-70
2023/05/31 09:23:03;;;;;;;;;;;;;;;22.90;30.76;100365.83;1806377;79;20209;-72
2023/05/31 09:25:45;;;;;;;;;;;;;;;22.83;30.97;100346.70;1788932;79;20133;-71
2023/05/31 09:28:12;;;;;;;;;;;;;;;22.84;31.07;100371.77;1787464;78;20108;-72
2023/05/31 09:30:41;;;;;;;;;;;;;;;22.73;30.50;100378.66;1800231;77;20131;-75
2023/05/31 09:33:08;;;;;;;;;;;;;;;22.59;30.62;100368.59;1807722;79;20409;-70
2023/05/31 09:35:35;;;;;;;;;;;;;;;22.49;30.85;100368.69;1821190;79;20092;-70
2023/05/31 09:38:07;;;;;;;;;;;;;;;22.44;31.03;100368.31;1821973;79;20155;-72
2023/05/31 09:40:35;;;;;;;;;;;;;;;22.35;30.76;100365.77;1795702;79;20149;-69
2023/05/31 09:43:01;;;;;;;;;;;;;;;22.15;30.97;100361.95;1788545;80;20130;-70
2023/05/31 09:45:29;;;;;;;;;;;;;;;22.07;31.15;100362.36;1793107;77;20119;-70
2023/05/31 09:47:56;;;;;;;;;;;;;;;22.02;31.44;100360.66;1804631;77;20107;-70
2023/05/31 09:50:23;;;;;;;;;;;;;;;22.04;31.20;100365.31;1808163;77;20149;-70
2023/05/31 09:52:57;;;;;;;;;;;;;;;21.97;30.76;100366.41;1811187;77;20137;-69
2023/05/31 09:55:24;;;;;;;;;;;;;;;21.88;30.86;100358.86;1812981;77;20100;-68
2023/05/31 09:57:52;;;;;;;;;;;;;;;21.86;30.38;100366.13;1821346;79;20406;-68
2023/05/31 10:00:19;;;;;;;;;;;;;;;21.84;30.45;100364.12;1831965;77;20135;-69
2023/05/31 10:02:46;;;;;;;;;;;;;;;21.82;30.77;100354.64;1789509;80;20137;-71
2023/05/31 10:05:14;;;;;;;;;;;;;;;21.82;30.89;100355.48;1788552;79;20189;-70
2023/05/31 10:07:42;;;;;;;;;;;;;;;21.86;30.73;100354.20;1788464;80;20153;-70
2023/05/31 10:10:09;;;;;;;;;;;;;;;21.87;30.58;100353.70;1792074;79;20090;-70
2023/05/31 10:12:50;;;;;;;;;;;;;;;21.88;30.53;100356.21;1806764;79;20096;-71
2023/05/31 10:15:20;;;;;;;;;;;;;;;21.86;30.32;100358.67;1788697;80;20171;-70
2023/05/31 10:17:51;;;;;;;;;;;;;;;21.76;30.18;100351.27;1788478;80;20139;-71
2023/05/31 10:20:17;;;;;;;;;;;;;;;21.66;30.61;100359.77;1776873;79;20178;-71
2023/05/31 10:22:45;;;;;;;;;;;;;;;21.58;30.48;100360.05;1766691;80;20124;-71
2023/05/31 10:25:31;;;;;;;;;;;;;;;21.47;30.63;100360.25;1788354;80;20116;-70
2023/05/31 10:28:00;;;;;;;;;;;;;;;21.44;30.87;100359.70;1787738;79;20405;-69
2023/05/31 10:30:29;;;;;;;;;;;;;;;21.38;30.78;100349.20;1789044;80;20095;-69
2023/05/31 10:33:05;;;;;;;;;;;;;;;21.39;30.89;100347.39;1789275;80;20098;-69
2023/05/31 10:35:32;;;;;;;;;;;;;;;21.43;31.01;100351.41;1794839;77;20131;-70
2023/05/31 10:38:00;;;;;;;;;;;;;;;21.48;30.79;100358.43;1789493;80;20380;-69
2023/05/31 10:41:04;;;;;;;;;;;;;;;21.41;30.30;100361.33;1788649;80;20137;-67
2023/05/31 10:43:44;;;;;;;;;;;;;;;21.28;30.49;100354.55;1789385;80;20379;-68
2023/05/31 10:46:19;;;;;;;;;;;;;;;21.23;30.54;100348.84;1778731;80;20099;-67
2023/05/31 10:48:56;;;;;;;;;;;;;;;21.25;30.43;100356.16;1789282;80;20212;-67
2023/05/31 10:51:41;;;;;;;;;;;;;;;21.28;30.39;100347.09;1788846;80;20118;-68
2023/05/31 10:54:08;;;;;;;;;;;;;;;21.32;30.39;100348.95;1782989;80;20830;-68
2023/05/31 10:56:39;;;;;;;;;;;;;;;21.33;30.39;100345.33;1787762;79;20889;-69
2023/05/31 10:59:10;;;;;;;;;;;;;;;21.35;29.96;100349.50;1815857;79;20102;-70
2023/05/31 11:01:38;;;;;;;;;;;;;;;21.32;29.03;100348.95;1783884;79;20138;-68
2023/05/31 11:04:04;;;;;;;;;;;;;;;21.32;28.91;100344.98;1820224;79;20449;-68
2023/05/31 11:06:34;;;;;;;;;;;;;;;21.35;28.96;100347.34;1814165;77;20135;-68
2023/05/31 11:09:08;;;;;;;;;;;;;;;21.34;29.12;100349.16;1818477;77;20125;-77
2023/05/31 11:11:39;;;;;;;;;;;;;;;21.32;29.08;100343.16;1814919;77;20157;-72
2023/05/31 11:14:07;;;;;;;;;;;;;;;21.25;29.00;100335.46;1799985;79;20124;-69
2023/05/31 11:16:47;;;;;;;;;;;;;;;21.15;29.01;100334.18;1805081;79;20961;-73
2023/05/31 11:19:14;;;;;;;;;;;;;;;21.08;29.42;100334.41;1811425;77;20100;-74
2023/05/31 11:21:52;;;;;;;;;;;;;;;21.06;28.54;100341.67;1808830;79;21009;-71
2023/05/31 11:24:28;;;;;;;;;;;;;;;21.02;28.62;100336.81;1794861;79;20390;-71
2023/05/31 11:26:57;;;;;;;;;;;;;;;21.03;28.68;100351.71;1800023;79;20236;-73
2023/05/31 11:29:25;;;;;;;;;;;;;;;21.01;28.37;100335.97;1811265;79;20106;-73
2023/05/31 11:31:58;;;;;;;;;;;;;;;20.98;28.59;100344.20;1808182;79;20141;-72
2023/05/31 11:34:29;;;;;;;;;;;;;;;20.95;28.89;100334.73;1809264;79;20097;-72
2023/05/31 11:37:08;;;;;;;;;;;;;;;20.95;29.37;100341.36;1794324;80;20102;-74
2023/05/31 11:39:38;;;;;;;;;;;;;;;20.99;29.60;100344.55;1791203;79;20117;-79
2023/05/31 11:42:36;;;;;;;;;;;;;;;21.00;29.57;100337.44;1811814;79;20143;-71
2023/05/31 11:44:50;;;;;;;;;;;;;;;21.00;29.67;100341.41;1784069;79;20384;-69
2023/05/31 11:47:22;;;;;;;;;;;;;;;20.98;29.18;100334.94;1802056;79;20131;-70
2023/05/31 11:49:49;;;;;;;;;;;;;;;20.93;28.98;100341.16;1805998;79;20107;-69
2023/05/31 11:52:17;;;;;;;;;;;;;;;20.87;28.83;100337.76;1809902;79;20092;-70
2023/05/31 11:54:45;;;;;;;;;;;;;;;20.80;29.03;100344.60;1818060;79;20103;-70
2023/05/31 11:57:12;;;;;;;;;;;;;;;20.76;29.02;100340.60;1804059;79;20385;-69
2023/05/31 11:59:39;;;;;;;;;;;;;;;20.72;28.97;100334.76;1808091;79;20145;-69
2023/05/31 12:02:06;;;;;;;;;;;;;;;20.72;29.46;100336.09;1806962;79;20094;-69
2023/05/31 12:04:37;;;;;;;;;;;;;;;20.72;29.21;100330.80;1813731;79;20086;-72
2023/05/31 12:07:05;;;;;;;;;;;;;;;20.73;29.62;100322.36;1816107;79;20401;-71
2023/05/31 12:09:33;;;;;;;;;;;;;;;20.76;29.83;100340.60;1807483;79;20157;-74
2023/05/31 12:12:00;;;;;;;;;;;;;;;20.78;29.64;100332.03;1808296;79;20429;-71
2023/05/31 12:14:27;;;;;;;;;;;;;;;20.76;29.63;100332.66;1806204;79;20155;-70
2023/05/31 12:16:54;;;;;;;;;;;;;;;20.72;29.75;100322.85;1807421;79;20112;-74
2023/05/31 12:19:21;;;;;;;;;;;;;;;20.70;29.65;100327.94;1813351;78;20264;-73
2023/05/31 12:21:48;;;;;;;;;;;;;;;20.70;29.40;100320.84;1816306;77;20108;-72
2023/05/31 12:24:15;;;;;;;;;;;;;;;20.71;29.68;100315.05;1799253;77;20106;-76
2023/05/31 12:26:43;;;;;;;;;;;;;;;20.74;29.29;100313.45;1807578;79;20161;-73
2023/05/31 12:29:15;;;;;;;;;;;;;;;20.74;29.46;100316.09;1815274;77;20085;-76
2023/05/31 12:31:42;;;;;;;;;;;;;;;20.76;29.72;100309.68;1828362;77;20084;-70
2023/05/31 12:34:12;;;;;;;;;;;;;;;20.81;29.79;100314.02;1826235;77;20112;-70
2023/05/31 12:36:47;;;;;;;;;;;;;;;20.83;29.92;100306.77;1806941;77;20161;-68
2023/05/31 12:39:22;;;;;;;;;;;;;;;20.84;30.03;100304.95;1813109;77;20119;-72
2023/05/31 12:41:49;;;;;;;;;;;;;;;20.80;30.15;100318.13;1800718;77;20383;-70
2023/05/31 12:44:18;;;;;;;;;;;;;;;20.76;30.14;100306.20;1805015;77;20184;-71
2023/05/31 12:46:45;;;;;;;;;;;;;;;20.70;29.95;100302.80;1816504;77;20383;-66
2023/05/31 12:49:21;;;;;;;;;;;;;;;20.66;30.09;100299.61;1809555;77;20103;-66
2023/05/31 12:51:50;;;;;;;;;;;;;;;20.59;30.18;100299.34;1807093;79;20088;-67
2023/05/31 12:54:17;;;;;;;;;;;;;;;20.55;30.40;100293.16;1802796;79;20091;-65
2023/05/31 12:56:44;;;;;;;;;;;;;;;20.55;30.70;100295.80;1802818;79;20352;-69
2023/05/31 12:59:11;;;;;;;;;;;;;;;20.56;30.77;100287.72;1816502;77;20117;-69
2023/05/31 13:01:40;;;;;;;;;;;;;;;20.59;30.96;100283.47;1821158;77;20099;-69
2023/05/31 13:04:09;;;;;;;;;;;;;;;20.66;30.98;100293.48;1815432;77;20107;-71
2023/05/31 13:06:38;;;;;;;;;;;;;;;20.68;30.89;100288.39;1822608;77;20149;-73
2023/05/31 13:09:06;;;;;;;;;;;;;;;20.69;30.84;100287.90;1814623;77;20120;-74
2023/05/31 13:11:37;;;;;;;;;;;;;;;20.69;31.02;100290.55;1805202;77;20413;-73
2023/05/31 13:14:04;;;;;;;;;;;;;;;20.71;30.92;100276.20;1808263;77;20096;-75
2023/05/31 13:16:32;;;;;;;;;;;;;;;20.74;30.91;100278.55;1811495;77;20146;-77
2023/05/31 13:18:59;;;;;;;;;;;;;;;20.76;30.98;100267.83;1804275;77;20091;-74
2023/05/31 13:21:26;;;;;;;;;;;;;;;20.76;30.88;100270.47;1808124;77;20100;-72
2023/05/31 13:23:53;;;;;;;;;;;;;;;20.74;30.80;100269.29;1803474;77;20080;-76
2023/05/31 13:26:20;;;;;;;;;;;;;;;20.72;30.86;100263.80;1797872;77;20094;-73
2023/05/31 13:28:46;;;;;;;;;;;;;;;20.71;31.07;100260.80;1803744;79;20118;-76
2023/05/31 13:31:13;;;;;;;;;;;;;;;20.72;31.17;100261.98;1793446;79;20371;-74
2023/05/31 13:33:39;;;;;;;;;;;;;;;20.73;31.15;100269.44;1802999;79;20123;-76
2023/05/31 13:36:07;;;;;;;;;;;;;;;20.72;30.96;100267.77;1799262;79;20102;-76
2023/05/31 13:38:34;;;;;;;;;;;;;;;20.68;31.08;100261.09;1807936;77;20119;-77
2023/05/31 13:41:00;;;;;;;;;;;;;;;20.64;31.16;100261.37;1815946;77;20113;-72
2023/05/31 13:43:29;;;;;;;;;;;;;;;20.64;31.38;100260.55;1818110;77;20100;-76
2023/05/31 13:46:33;;;;;;;;;;;;;;;20.66;31.53;100253.79;1800070;77;20214;-76
2023/05/31 13:49:00;;;;;;;;;;;;;;;20.66;31.67;100250.66;1792569;77;20104;-76
2023/05/31 13:51:29;;;;;;;;;;;;;;;20.69;31.94;100242.92;1821546;77;20134;-80
2023/05/31 13:53:56;;;;;;;;;;;;;;;20.72;32.20;100252.72;1803430;79;20091;-74
2023/05/31 13:56:22;;;;;;;;;;;;;;;20.75;31.86;100251.11;1798557;77;20133;-72
2023/05/31 13:58:49;;;;;;;;;;;;;;;20.74;31.95;100245.47;1813732;77;20131;-70
2023/05/31 14:01:16;;;;;;;;;;;;;;;20.76;32.08;100250.63;1822698;77;20104;-74
2023/05/31 14:03:42;;;;;;;;;;;;;;;20.78;32.23;100255.28;1799346;79;20180;-74
2023/05/31 14:06:09;;;;;;;;;;;;;;;20.81;31.74;100247.02;1803136;77;20153;-75
